sensor_id;sensor_type;location;lat;lon;timestamp;P1;durP1;ratioP1;P2;durP2;ratioP2
26612;SDS011;14248;57.652;11.908;2023-03-30T00:00:14;1.20;;;1.10;;
26612;SDS011;14248;57.652;11.908;2023-03-30T00:02:48;1.75;;;1.40;;
26612;SDS011;14248;57.652;11.908;2023-03-30T00:05:19;1.50;;;1.40;;
26612;SDS011;14248;57.652;11.908;2023-03-30T00:07:48;1.58;;;1.48;;
26612;SDS011;14248;57.652;11.908;2023-03-30T00:10:16;1.88;;;1.25;;
26612;SDS011;14248;57.652;11.908;2023-03-30T00:12:44;1.30;;;1.17;;
26612;SDS011;14248;57.652;11.908;2023-03-30T00:15:12;1.42;;;1.17;;
26612;SDS011;14248;57.652;11.908;2023-03-30T00:17:41;1.10;;;1.00;;
26612;SDS011;14248;57.652;11.908;2023-03-30T00:20:09;1.60;;;1.15;;
26612;SDS011;14248;57.652;11.908;2023-03-30T00:22:43;1.23;;;1.13;;
26612;SDS011;14248;57.652;11.908;2023-03-30T00:25:11;1.42;;;1.00;;
26612;SDS011;14248;57.652;11.908;2023-03-30T00:30:26;0.82;;;0.82;;
26612;SDS011;14248;57.652;11.908;2023-03-30T00:33:02;1.08;;;0.98;;
26612;SDS011;14248;57.652;11.908;2023-03-30T00:35:30;1.48;;;1.13;;
26612;SDS011;14248;57.652;11.908;2023-03-30T00:38:00;1.52;;;1.08;;
26612;SDS011;14248;57.652;11.908;2023-03-30T00:40:33;1.00;;;1.00;;
26612;SDS011;14248;57.652;11.908;2023-03-30T00:43:06;1.02;;;0.93;;
26612;SDS011;14248;57.652;11.908;2023-03-30T00:45:51;1.17;;;1.00;;
26612;SDS011;14248;57.652;11.908;2023-03-30T00:50:45;1.23;;;1.13;;
26612;SDS011;14248;57.652;11.908;2023-03-30T00:53:13;1.40;;;0.98;;
26612;SDS011;14248;57.652;11.908;2023-03-30T00:55:51;1.27;;;1.10;;
26612;SDS011;14248;57.652;11.908;2023-03-30T00:58:29;1.90;;;1.00;;
26612;SDS011;14248;57.652;11.908;2023-03-30T01:00:58;0.90;;;0.80;;
26612;SDS011;14248;57.652;11.908;2023-03-30T01:03:43;0.75;;;0.75;;
26612;SDS011;14248;57.652;11.908;2023-03-30T01:06:12;1.27;;;1.02;;
26612;SDS011;14248;57.652;11.908;2023-03-30T01:08:42;0.85;;;0.70;;
26612;SDS011;14248;57.652;11.908;2023-03-30T01:11:15;0.95;;;0.85;;
26612;SDS011;14248;57.652;11.908;2023-03-30T01:13:42;1.20;;;0.73;;
26612;SDS011;14248;57.652;11.908;2023-03-30T01:40:28;0.63;;;0.50;;
26612;SDS011;14248;57.652;11.908;2023-03-30T01:42:57;0.40;;;0.40;;
26612;SDS011;14248;57.652;11.908;2023-03-30T01:49:00;0.73;;;0.60;;
26612;SDS011;14248;57.652;11.908;2023-03-30T01:53:54;0.52;;;0.40;;
26612;SDS011;14248;57.652;11.908;2023-03-30T01:59:24;0.60;;;0.50;;
26612;SDS011;14248;57.652;11.908;2023-03-30T02:01:51;0.77;;;0.50;;
26612;SDS011;14248;57.652;11.908;2023-03-30T02:04:25;0.50;;;0.50;;
26612;SDS011;14248;57.652;11.908;2023-03-30T02:06:58;0.60;;;0.50;;
26612;SDS011;14248;57.652;11.908;2023-03-30T02:09:25;0.73;;;0.50;;
26612;SDS011;14248;57.652;11.908;2023-03-30T02:11:58;0.47;;;0.47;;
26612;SDS011;14248;57.652;11.908;2023-03-30T02:22:35;0.40;;;0.40;;
26612;SDS011;14248;57.652;11.908;2023-03-30T02:25:04;0.40;;;0.40;;
26612;SDS011;14248;57.652;11.908;2023-03-30T02:27:31;0.55;;;0.45;;
26612;SDS011;14248;57.652;11.908;2023-03-30T02:30:00;0.93;;;0.50;;
26612;SDS011;14248;57.652;11.908;2023-03-30T02:32:30;0.50;;;0.40;;
26612;SDS011;14248;57.652;11.908;2023-03-30T02:38:23;0.30;;;0.30;;
26612;SDS011;14248;57.652;11.908;2023-03-30T02:51:50;0.40;;;0.40;;
26612;SDS011;14248;57.652;11.908;2023-03-30T03:02:34;0.68;;;0.40;;
26612;SDS011;14248;57.652;11.908;2023-03-30T03:05:02;1.17;;;0.30;;
26612;SDS011;14248;57.652;11.908;2023-03-30T03:07:37;0.30;;;0.30;;
26612;SDS011;14248;57.652;11.908;2023-03-30T03:10:04;0.30;;;0.30;;
26612;SDS011;14248;57.652;11.908;2023-03-30T03:12:46;0.50;;;0.47;;
26612;SDS011;14248;57.652;11.908;2023-03-30T03:15:13;0.50;;;0.50;;
26612;SDS011;14248;57.652;11.908;2023-03-30T03:20:22;0.60;;;0.60;;
26612;SDS011;14248;57.652;11.908;2023-03-30T03:22:52;0.43;;;0.40;;
26612;SDS011;14248;57.652;11.908;2023-03-30T03:25:21;0.40;;;0.40;;
26612;SDS011;14248;57.652;11.908;2023-03-30T03:27:47;2.08;;;0.43;;
26612;SDS011;14248;57.652;11.908;2023-03-30T03:30:25;0.30;;;0.30;;
26612;SDS011;14248;57.652;11.908;2023-03-30T03:35:37;0.93;;;0.50;;
26612;SDS011;14248;57.652;11.908;2023-03-30T03:38:03;0.32;;;0.32;;
26612;SDS011;14248;57.652;11.908;2023-03-30T03:40:47;0.40;;;0.40;;
26612;SDS011;14248;57.652;11.908;2023-03-30T03:43:22;0.95;;;0.40;;
26612;SDS011;14248;57.652;11.908;2023-03-30T03:45:55;0.30;;;0.30;;
26612;SDS011;14248;57.652;11.908;2023-03-30T03:48:23;0.47;;;0.40;;
26612;SDS011;14248;57.652;11.908;2023-03-30T03:50:53;0.50;;;0.47;;
26612;SDS011;14248;57.652;11.908;2023-03-30T03:53:21;0.50;;;0.50;;
26612;SDS011;14248;57.652;11.908;2023-03-30T03:55:48;1.38;;;0.40;;
26612;SDS011;14248;57.652;11.908;2023-03-30T03:58:14;0.50;;;0.50;;
26612;SDS011;14248;57.652;11.908;2023-03-30T04:00:41;0.50;;;0.50;;
26612;SDS011;14248;57.652;11.908;2023-03-30T04:03:07;0.40;;;0.40;;
26612;SDS011;14248;57.652;11.908;2023-03-30T04:05:41;0.88;;;0.55;;
26612;SDS011;14248;57.652;11.908;2023-03-30T04:08:09;0.40;;;0.40;;
26612;SDS011;14248;57.652;11.908;2023-03-30T04:10:39;0.95;;;0.68;;
26612;SDS011;14248;57.652;11.908;2023-03-30T04:13:06;0.50;;;0.50;;
26612;SDS011;14248;57.652;11.908;2023-03-30T04:15:32;1.15;;;1.05;;
26612;SDS011;14248;57.652;11.908;2023-03-30T04:17:58;2.00;;;1.80;;
26612;SDS011;14248;57.652;11.908;2023-03-30T04:20:26;2.03;;;1.83;;
26612;SDS011;14248;57.652;11.908;2023-03-30T04:22:52;0.85;;;0.82;;
26612;SDS011;14248;57.652;11.908;2023-03-30T04:25:22;1.17;;;0.88;;
26612;SDS011;14248;57.652;11.908;2023-03-30T04:27:52;2.42;;;2.22;;
26612;SDS011;14248;57.652;11.908;2023-03-30T04:30:19;2.85;;;2.20;;
26612;SDS011;14248;57.652;11.908;2023-03-30T04:32:46;2.42;;;1.98;;
26612;SDS011;14248;57.652;11.908;2023-03-30T04:35:26;1.10;;;0.95;;
26612;SDS011;14248;57.652;11.908;2023-03-30T04:37:53;1.98;;;1.63;;
26612;SDS011;14248;57.652;11.908;2023-03-30T04:40:22;3.30;;;2.72;;
26612;SDS011;14248;57.652;11.908;2023-03-30T04:42:48;3.17;;;2.40;;
26612;SDS011;14248;57.652;11.908;2023-03-30T04:45:14;1.50;;;1.40;;
26612;SDS011;14248;57.652;11.908;2023-03-30T04:47:44;0.95;;;0.93;;
26612;SDS011;14248;57.652;11.908;2023-03-30T04:50:11;1.35;;;1.17;;
26612;SDS011;14248;57.652;11.908;2023-03-30T04:52:38;1.65;;;1.55;;
26612;SDS011;14248;57.652;11.908;2023-03-30T04:55:05;1.35;;;1.23;;
26612;SDS011;14248;57.652;11.908;2023-03-30T04:57:33;0.80;;;0.80;;
26612;SDS011;14248;57.652;11.908;2023-03-30T04:59:59;0.90;;;0.80;;
26612;SDS011;14248;57.652;11.908;2023-03-30T05:02:26;0.70;;;0.70;;
26612;SDS011;14248;57.652;11.908;2023-03-30T05:04:52;0.80;;;0.80;;
26612;SDS011;14248;57.652;11.908;2023-03-30T05:07:23;0.50;;;0.50;;
26612;SDS011;14248;57.652;11.908;2023-03-30T05:09:49;0.60;;;0.60;;
26612;SDS011;14248;57.652;11.908;2023-03-30T05:12:16;0.70;;;0.70;;
26612;SDS011;14248;57.652;11.908;2023-03-30T05:14:42;0.77;;;0.77;;
26612;SDS011;14248;57.652;11.908;2023-03-30T05:17:08;0.60;;;0.60;;
26612;SDS011;14248;57.652;11.908;2023-03-30T05:19:39;0.93;;;0.90;;
26612;SDS011;14248;57.652;11.908;2023-03-30T05:22:05;0.90;;;0.90;;
26612;SDS011;14248;57.652;11.908;2023-03-30T05:24:33;0.98;;;0.90;;
26612;SDS011;14248;57.652;11.908;2023-03-30T05:27:01;0.93;;;0.93;;
26612;SDS011;14248;57.652;11.908;2023-03-30T05:29:30;0.70;;;0.70;;
26612;SDS011;14248;57.652;11.908;2023-03-30T05:32:01;1.45;;;1.10;;
26612;SDS011;14248;57.652;11.908;2023-03-30T05:34:28;0.80;;;0.80;;
26612;SDS011;14248;57.652;11.908;2023-03-30T05:36:55;1.10;;;1.00;;
26612;SDS011;14248;57.652;11.908;2023-03-30T05:39:25;1.10;;;1.00;;
26612;SDS011;14248;57.652;11.908;2023-03-30T05:41:52;1.20;;;1.10;;
26612;SDS011;14248;57.652;11.908;2023-03-30T05:44:19;2.35;;;1.40;;
26612;SDS011;14248;57.652;11.908;2023-03-30T05:46:48;1.95;;;0.85;;
26612;SDS011;14248;57.652;11.908;2023-03-30T05:49:14;0.65;;;0.65;;
26612;SDS011;14248;57.652;11.908;2023-03-30T05:51:41;1.10;;;1.00;;
26612;SDS011;14248;57.652;11.908;2023-03-30T05:54:14;0.93;;;0.70;;
26612;SDS011;14248;57.652;11.908;2023-03-30T05:56:41;2.85;;;1.08;;
26612;SDS011;14248;57.652;11.908;2023-03-30T05:59:08;1.33;;;0.90;;
26612;SDS011;14248;57.652;11.908;2023-03-30T06:01:35;1.23;;;1.13;;
26612;SDS011;14248;57.652;11.908;2023-03-30T06:04:03;2.42;;;1.33;;
26612;SDS011;14248;57.652;11.908;2023-03-30T06:06:31;2.20;;;1.27;;
26612;SDS011;14248;57.652;11.908;2023-03-30T06:08:59;0.90;;;0.85;;
26612;SDS011;14248;57.652;11.908;2023-03-30T06:11:29;0.80;;;0.80;;
26612;SDS011;14248;57.652;11.908;2023-03-30T06:14:04;1.15;;;1.02;;
26612;SDS011;14248;57.652;11.908;2023-03-30T06:16:30;1.50;;;1.30;;
26612;SDS011;14248;57.652;11.908;2023-03-30T06:18:56;1.20;;;1.10;;
26612;SDS011;14248;57.652;11.908;2023-03-30T06:21:23;1.13;;;1.02;;
26612;SDS011;14248;57.652;11.908;2023-03-30T06:23:49;0.95;;;0.88;;
26612;SDS011;14248;57.652;11.908;2023-03-30T06:26:15;1.10;;;1.00;;
26612;SDS011;14248;57.652;11.908;2023-03-30T06:28:42;0.80;;;0.80;;
26612;SDS011;14248;57.652;11.908;2023-03-30T06:31:09;1.02;;;0.90;;
26612;SDS011;14248;57.652;11.908;2023-03-30T06:33:41;1.10;;;1.00;;
26612;SDS011;14248;57.652;11.908;2023-03-30T06:36:13;1.10;;;0.80;;
26612;SDS011;14248;57.652;11.908;2023-03-30T06:38:39;0.88;;;0.88;;
26612;SDS011;14248;57.652;11.908;2023-03-30T06:41:07;1.15;;;1.10;;
26612;SDS011;14248;57.652;11.908;2023-03-30T06:43:35;2.22;;;1.27;;
26612;SDS011;14248;57.652;11.908;2023-03-30T06:46:03;2.03;;;1.40;;
26612;SDS011;14248;57.652;11.908;2023-03-30T06:48:30;0.77;;;0.70;;
26612;SDS011;14248;57.652;11.908;2023-03-30T06:51:03;0.90;;;0.90;;
26612;SDS011;14248;57.652;11.908;2023-03-30T06:53:31;1.25;;;0.90;;
26612;SDS011;14248;57.652;11.908;2023-03-30T06:55:57;1.35;;;1.00;;
26612;SDS011;14248;57.652;11.908;2023-03-30T06:58:24;1.10;;;1.00;;
26612;SDS011;14248;57.652;11.908;2023-03-30T07:00:51;0.88;;;0.88;;
26612;SDS011;14248;57.652;11.908;2023-03-30T07:03:18;1.60;;;1.00;;
26612;SDS011;14248;57.652;11.908;2023-03-30T07:05:49;0.70;;;0.70;;
26612;SDS011;14248;57.652;11.908;2023-03-30T07:08:16;1.60;;;0.93;;
26612;SDS011;14248;57.652;11.908;2023-03-30T07:10:46;0.82;;;0.80;;
26612;SDS011;14248;57.652;11.908;2023-03-30T07:13:12;1.30;;;1.00;;
26612;SDS011;14248;57.652;11.908;2023-03-30T07:15:43;0.82;;;0.80;;
26612;SDS011;14248;57.652;11.908;2023-03-30T07:18:09;0.70;;;0.70;;
26612;SDS011;14248;57.652;11.908;2023-03-30T07:20:38;0.60;;;0.60;;
26612;SDS011;14248;57.652;11.908;2023-03-30T07:23:04;1.10;;;0.90;;
26612;SDS011;14248;57.652;11.908;2023-03-30T07:25:31;0.60;;;0.60;;
26612;SDS011;14248;57.652;11.908;2023-03-30T07:27:59;0.70;;;0.70;;
26612;SDS011;14248;57.652;11.908;2023-03-30T07:30:27;0.75;;;0.73;;
26612;SDS011;14248;57.652;11.908;2023-03-30T07:32:56;0.80;;;0.80;;
26612;SDS011;14248;57.652;11.908;2023-03-30T07:35:26;1.63;;;0.70;;
26612;SDS011;14248;57.652;11.908;2023-03-30T07:40:33;0.88;;;0.70;;
26612;SDS011;14248;57.652;11.908;2023-03-30T07:42:59;0.80;;;0.80;;
26612;SDS011;14248;57.652;11.908;2023-03-30T07:45:25;0.60;;;0.60;;
26612;SDS011;14248;57.652;11.908;2023-03-30T07:47:54;1.00;;;0.85;;
26612;SDS011;14248;57.652;11.908;2023-03-30T07:50:21;1.10;;;1.00;;
26612;SDS011;14248;57.652;11.908;2023-03-30T07:52:55;1.02;;;0.82;;
26612;SDS011;14248;57.652;11.908;2023-03-30T07:55:28;1.30;;;0.63;;
26612;SDS011;14248;57.652;11.908;2023-03-30T07:57:54;1.48;;;0.73;;
26612;SDS011;14248;57.652;11.908;2023-03-30T08:00:22;1.50;;;0.70;;
26612;SDS011;14248;57.652;11.908;2023-03-30T08:02:48;1.70;;;0.60;;
26612;SDS011;14248;57.652;11.908;2023-03-30T08:05:15;0.68;;;0.68;;
26612;SDS011;14248;57.652;11.908;2023-03-30T08:07:43;0.80;;;0.80;;
26612;SDS011;14248;57.652;11.908;2023-03-30T08:10:09;2.72;;;0.55;;
26612;SDS011;14248;57.652;11.908;2023-03-30T08:12:40;0.63;;;0.57;;
26612;SDS011;14248;57.652;11.908;2023-03-30T08:15:07;1.35;;;0.90;;
26612;SDS011;14248;57.652;11.908;2023-03-30T08:17:35;0.77;;;0.60;;
26612;SDS011;14248;57.652;11.908;2023-03-30T08:20:01;0.77;;;0.60;;
26612;SDS011;14248;57.652;11.908;2023-03-30T08:22:32;0.80;;;0.55;;
26612;SDS011;14248;57.652;11.908;2023-03-30T08:24:58;0.60;;;0.55;;
26612;SDS011;14248;57.652;11.908;2023-03-30T08:27:25;0.57;;;0.38;;
26612;SDS011;14248;57.652;11.908;2023-03-30T08:29:52;0.45;;;0.35;;
26612;SDS011;14248;57.652;11.908;2023-03-30T08:32:19;0.40;;;0.40;;
26612;SDS011;14248;57.652;11.908;2023-03-30T08:34:45;0.95;;;0.55;;
26612;SDS011;14248;57.652;11.908;2023-03-30T08:37:12;0.50;;;0.50;;
26612;SDS011;14248;57.652;11.908;2023-03-30T08:39:38;0.40;;;0.40;;
26612;SDS011;14248;57.652;11.908;2023-03-30T08:42:27;0.20;;;0.20;;
26612;SDS011;14248;57.652;11.908;2023-03-30T08:44:54;1.30;;;0.20;;
26612;SDS011;14248;57.652;11.908;2023-03-30T08:47:28;0.22;;;0.20;;
26612;SDS011;14248;57.652;11.908;2023-03-30T08:58:02;0.82;;;0.40;;
26612;SDS011;14248;57.652;11.908;2023-03-30T09:00:51;0.40;;;0.20;;
26612;SDS011;14248;57.652;11.908;2023-03-30T09:04:02;0.47;;;0.30;;
26612;SDS011;14248;57.652;11.908;2023-03-30T09:06:14;0.30;;;0.30;;
26612;SDS011;14248;57.652;11.908;2023-03-30T09:08:50;0.40;;;0.25;;
26612;SDS011;14248;57.652;11.908;2023-03-30T09:11:29;0.63;;;0.47;;
26612;SDS011;14248;57.652;11.908;2023-03-30T09:13:55;0.40;;;0.40;;
26612;SDS011;14248;57.652;11.908;2023-03-30T09:18:55;0.40;;;0.40;;
26612;SDS011;14248;57.652;11.908;2023-03-30T09:21:23;0.52;;;0.38;;
26612;SDS011;14248;57.652;11.908;2023-03-30T09:23:52;0.57;;;0.30;;
26612;SDS011;14248;57.652;11.908;2023-03-30T09:29:25;0.40;;;0.38;;
26612;SDS011;14248;57.652;11.908;2023-03-30T09:32:02;0.95;;;0.43;;
26612;SDS011;14248;57.652;11.908;2023-03-30T09:39:29;0.30;;;0.30;;
26612;SDS011;14248;57.652;11.908;2023-03-30T09:44:24;0.45;;;0.32;;
26612;SDS011;14248;57.652;11.908;2023-03-30T09:46:51;0.52;;;0.40;;
26612;SDS011;14248;57.652;11.908;2023-03-30T09:49:18;1.50;;;0.40;;
26612;SDS011;14248;57.652;11.908;2023-03-30T09:51:55;0.88;;;0.25;;
26612;SDS011;14248;57.652;11.908;2023-03-30T09:54:21;1.30;;;0.45;;
26612;SDS011;14248;57.652;11.908;2023-03-30T09:56:52;0.68;;;0.40;;
26612;SDS011;14248;57.652;11.908;2023-03-30T09:59:35;0.30;;;0.25;;
26612;SDS011;14248;57.652;11.908;2023-03-30T10:07:24;0.40;;;0.40;;
26612;SDS011;14248;57.652;11.908;2023-03-30T10:09:51;0.60;;;0.40;;
26612;SDS011;14248;57.652;11.908;2023-03-30T10:12:19;0.50;;;0.30;;
26612;SDS011;14248;57.652;11.908;2023-03-30T10:14:51;0.90;;;0.40;;
26612;SDS011;14248;57.652;11.908;2023-03-30T10:17:19;1.35;;;0.40;;
26612;SDS011;14248;57.652;11.908;2023-03-30T10:19:46;0.52;;;0.40;;
26612;SDS011;14248;57.652;11.908;2023-03-30T10:22:15;0.22;;;0.22;;
26612;SDS011;14248;57.652;11.908;2023-03-30T10:24:49;0.50;;;0.38;;
26612;SDS011;14248;57.652;11.908;2023-03-30T10:27:16;0.20;;;0.20;;
26612;SDS011;14248;57.652;11.908;2023-03-30T10:29:46;0.73;;;0.20;;
26612;SDS011;14248;57.652;11.908;2023-03-30T10:32:17;0.95;;;0.60;;
26612;SDS011;14248;57.652;11.908;2023-03-30T10:34:52;0.95;;;0.52;;
26612;SDS011;14248;57.652;11.908;2023-03-30T10:40:13;0.30;;;0.30;;
26612;SDS011;14248;57.652;11.908;2023-03-30T10:42:42;0.82;;;0.35;;
26612;SDS011;14248;57.652;11.908;2023-03-30T10:45:15;0.35;;;0.32;;
26612;SDS011;14248;57.652;11.908;2023-03-30T10:50:14;0.30;;;0.30;;
26612;SDS011;14248;57.652;11.908;2023-03-30T10:55:34;0.20;;;0.17;;
26612;SDS011;14248;57.652;11.908;2023-03-30T11:03:32;0.20;;;0.20;;
26612;SDS011;14248;57.652;11.908;2023-03-30T11:06:10;0.30;;;0.30;;
26612;SDS011;14248;57.652;11.908;2023-03-30T11:08:40;1.20;;;0.40;;
26612;SDS011;14248;57.652;11.908;2023-03-30T11:11:12;0.82;;;0.30;;
26612;SDS011;14248;57.652;11.908;2023-03-30T11:13:41;0.47;;;0.30;;
26612;SDS011;14248;57.652;11.908;2023-03-30T11:24:20;0.43;;;0.38;;
26612;SDS011;14248;57.652;11.908;2023-03-30T11:26:48;0.88;;;0.25;;
26612;SDS011;14248;57.652;11.908;2023-03-30T11:36:54;0.85;;;0.28;;
26612;SDS011;14248;57.652;11.908;2023-03-30T11:39:24;0.20;;;0.20;;
26612;SDS011;14248;57.652;11.908;2023-03-30T11:42:00;0.50;;;0.20;;
26612;SDS011;14248;57.652;11.908;2023-03-30T11:44:36;0.20;;;0.20;;
26612;SDS011;14248;57.652;11.908;2023-03-30T11:52:30;0.20;;;0.20;;
26612;SDS011;14248;57.652;11.908;2023-03-30T12:12:57;0.45;;;0.20;;
26612;SDS011;14248;57.652;11.908;2023-03-30T12:20:52;0.20;;;0.20;;
26612;SDS011;14248;57.652;11.908;2023-03-30T12:28:45;0.20;;;0.20;;
26612;SDS011;14248;57.652;11.908;2023-03-30T12:31:12;0.32;;;0.28;;
26612;SDS011;14248;57.652;11.908;2023-03-30T12:39:03;0.55;;;0.22;;
26612;SDS011;14248;57.652;11.908;2023-03-30T12:41:38;0.70;;;0.40;;
26612;SDS011;14248;57.652;11.908;2023-03-30T12:46:54;0.20;;;0.20;;
26612;SDS011;14248;57.652;11.908;2023-03-30T12:49:31;0.32;;;0.30;;
26612;SDS011;14248;57.652;11.908;2023-03-30T12:52:06;0.22;;;0.20;;
26612;SDS011;14248;57.652;11.908;2023-03-30T13:04:39;0.43;;;0.30;;
26612;SDS011;14248;57.652;11.908;2023-03-30T13:07:06;0.55;;;0.30;;
26612;SDS011;14248;57.652;11.908;2023-03-30T13:09:34;0.40;;;0.32;;
26612;SDS011;14248;57.652;11.908;2023-03-30T13:21:48;0.60;;;0.30;;
26612;SDS011;14248;57.652;11.908;2023-03-30T13:24:20;0.45;;;0.32;;
26612;SDS011;14248;57.652;11.908;2023-03-30T13:26:48;0.50;;;0.40;;
26612;SDS011;14248;57.652;11.908;2023-03-30T13:29:15;0.85;;;0.55;;
26612;SDS011;14248;57.652;11.908;2023-03-30T13:31:46;0.63;;;0.40;;
26612;SDS011;14248;57.652;11.908;2023-03-30T13:36:46;0.20;;;0.20;;
26612;SDS011;14248;57.652;11.908;2023-03-30T13:44:22;0.40;;;0.20;;
26612;SDS011;14248;57.652;11.908;2023-03-30T13:46:52;0.40;;;0.38;;
26612;SDS011;14248;57.652;11.908;2023-03-30T13:51:44;0.90;;;0.32;;
26612;SDS011;14248;57.652;11.908;2023-03-30T13:54:15;0.45;;;0.20;;
26612;SDS011;14248;57.652;11.908;2023-03-30T13:56:47;0.20;;;0.20;;
26612;SDS011;14248;57.652;11.908;2023-03-30T13:59:21;0.20;;;0.20;;
26612;SDS011;14248;57.652;11.908;2023-03-30T14:01:54;0.43;;;0.30;;
26612;SDS011;14248;57.652;11.908;2023-03-30T14:04:21;0.10;;;0.10;;
26612;SDS011;14248;57.652;11.908;2023-03-30T14:06:48;0.35;;;0.20;;
26612;SDS011;14248;57.652;11.908;2023-03-30T14:09:20;0.20;;;0.20;;
26612;SDS011;14248;57.652;11.908;2023-03-30T14:11:48;0.30;;;0.13;;
26612;SDS011;14248;57.652;11.908;2023-03-30T14:14:15;0.25;;;0.17;;
26612;SDS011;14248;57.652;11.908;2023-03-30T14:16:43;0.35;;;0.20;;
26612;SDS011;14248;57.652;11.908;2023-03-30T14:19:11;0.30;;;0.20;;
26612;SDS011;14248;57.652;11.908;2023-03-30T14:21:43;0.20;;;0.20;;
26612;SDS011;14248;57.652;11.908;2023-03-30T14:24:14;0.32;;;0.20;;
26612;SDS011;14248;57.652;11.908;2023-03-30T14:26:42;0.10;;;0.10;;
26612;SDS011;14248;57.652;11.908;2023-03-30T14:29:16;0.35;;;0.25;;
26612;SDS011;14248;57.652;11.908;2023-03-30T14:31:48;0.10;;;0.10;;
26612;SDS011;14248;57.652;11.908;2023-03-30T14:34:36;0.60;;;0.50;;
26612;SDS011;14248;57.652;11.908;2023-03-30T14:37:03;0.40;;;0.30;;
26612;SDS011;14248;57.652;11.908;2023-03-30T14:42:31;0.20;;;0.10;;
26612;SDS011;14248;57.652;11.908;2023-03-30T14:44:58;0.10;;;0.10;;
26612;SDS011;14248;57.652;11.908;2023-03-30T14:47:26;0.60;;;0.30;;
26612;SDS011;14248;57.652;11.908;2023-03-30T14:49:54;0.98;;;0.20;;
26612;SDS011;14248;57.652;11.908;2023-03-30T14:52:26;0.17;;;0.10;;
26612;SDS011;14248;57.652;11.908;2023-03-30T14:54:55;0.20;;;0.20;;
26612;SDS011;14248;57.652;11.908;2023-03-30T14:57:23;1.27;;;0.20;;
26612;SDS011;14248;57.652;11.908;2023-03-30T14:59:52;1.02;;;0.30;;
26612;SDS011;14248;57.652;11.908;2023-03-30T15:02:29;0.25;;;0.25;;
26612;SDS011;14248;57.652;11.908;2023-03-30T15:04:56;0.70;;;0.10;;
26612;SDS011;14248;57.652;11.908;2023-03-30T15:07:23;0.22;;;0.20;;
26612;SDS011;14248;57.652;11.908;2023-03-30T15:09:54;0.10;;;0.10;;
26612;SDS011;14248;57.652;11.908;2023-03-30T15:17:31;0.10;;;0.10;;
26612;SDS011;14248;57.652;11.908;2023-03-30T15:19:58;0.10;;;0.10;;
26612;SDS011;14248;57.652;11.908;2023-03-30T15:22:27;0.20;;;0.20;;
26612;SDS011;14248;57.652;11.908;2023-03-30T15:25:05;0.75;;;0.30;;
26612;SDS011;14248;57.652;11.908;2023-03-30T15:27:34;0.88;;;0.13;;
26612;SDS011;14248;57.652;11.908;2023-03-30T15:32:38;0.10;;;0.10;;
26612;SDS011;14248;57.652;11.908;2023-03-30T15:48:33;0.30;;;0.30;;
26612;SDS011;14248;57.652;11.908;2023-03-30T15:51:18;0.33;;;0.20;;
26612;SDS011;14248;57.652;11.908;2023-03-30T15:56:12;0.40;;;0.20;;
26612;SDS011;14248;57.652;11.908;2023-03-30T15:58:42;0.20;;;0.10;;
26612;SDS011;14248;57.652;11.908;2023-03-30T16:01:09;0.20;;;0.20;;
26612;SDS011;14248;57.652;11.908;2023-03-30T16:03:38;0.10;;;0.10;;
26612;SDS011;14248;57.652;11.908;2023-03-30T16:06:12;1.27;;;0.20;;
26612;SDS011;14248;57.652;11.908;2023-03-30T16:08:38;0.52;;;0.28;;
26612;SDS011;14248;57.652;11.908;2023-03-30T16:11:08;0.10;;;0.10;;
26612;SDS011;14248;57.652;11.908;2023-03-30T16:13:42;0.20;;;0.10;;
26612;SDS011;14248;57.652;11.908;2023-03-30T16:16:09;0.32;;;0.30;;
26612;SDS011;14248;57.652;11.908;2023-03-30T16:18:37;0.30;;;0.20;;
26612;SDS011;14248;57.652;11.908;2023-03-30T16:21:03;0.30;;;0.20;;
26612;SDS011;14248;57.652;11.908;2023-03-30T16:23:30;0.28;;;0.20;;
26612;SDS011;14248;57.652;11.908;2023-03-30T16:25:56;0.45;;;0.20;;
26612;SDS011;14248;57.652;11.908;2023-03-30T16:28:23;0.20;;;0.20;;
26612;SDS011;14248;57.652;11.908;2023-03-30T16:30:51;0.32;;;0.10;;
26612;SDS011;14248;57.652;11.908;2023-03-30T16:33:17;0.30;;;0.17;;
26612;SDS011;14248;57.652;11.908;2023-03-30T16:35:43;0.88;;;0.30;;
26612;SDS011;14248;57.652;11.908;2023-03-30T16:38:13;0.57;;;0.20;;
26612;SDS011;14248;57.652;11.908;2023-03-30T16:40:43;0.25;;;0.20;;
26612;SDS011;14248;57.652;11.908;2023-03-30T16:43:10;0.35;;;0.20;;
26612;SDS011;14248;57.652;11.908;2023-03-30T16:45:36;0.10;;;0.10;;
26612;SDS011;14248;57.652;11.908;2023-03-30T16:48:02;0.30;;;0.17;;
26612;SDS011;14248;57.652;11.908;2023-03-30T16:50:44;0.32;;;0.20;;
26612;SDS011;14248;57.652;11.908;2023-03-30T16:53:11;0.20;;;0.20;;
26612;SDS011;14248;57.652;11.908;2023-03-30T16:55:37;0.50;;;0.10;;
26612;SDS011;14248;57.652;11.908;2023-03-30T16:58:04;0.25;;;0.15;;
26612;SDS011;14248;57.652;11.908;2023-03-30T17:00:33;0.30;;;0.17;;
26612;SDS011;14248;57.652;11.908;2023-03-30T17:03:00;0.10;;;0.10;;
26612;SDS011;14248;57.652;11.908;2023-03-30T17:05:27;0.20;;;0.15;;
26612;SDS011;14248;57.652;11.908;2023-03-30T17:07:55;0.22;;;0.20;;
26612;SDS011;14248;57.652;11.908;2023-03-30T17:10:28;0.25;;;0.10;;
26612;SDS011;14248;57.652;11.908;2023-03-30T17:12:57;0.15;;;0.15;;
26612;SDS011;14248;57.652;11.908;2023-03-30T17:15:24;0.00;;;0.00;;
26612;SDS011;14248;57.652;11.908;2023-03-30T17:17:50;0.10;;;0.10;;
26612;SDS011;14248;57.652;11.908;2023-03-30T17:20:28;0.10;;;0.10;;
26612;SDS011;14248;57.652;11.908;2023-03-30T17:25:28;0.10;;;0.10;;
26612;SDS011;14248;57.652;11.908;2023-03-30T17:27:55;0.13;;;0.10;;
26612;SDS011;14248;57.652;11.908;2023-03-30T17:30:28;0.20;;;0.20;;
26612;SDS011;14248;57.652;11.908;2023-03-30T17:32:55;0.10;;;0.10;;
26612;SDS011;14248;57.652;11.908;2023-03-30T17:37:57;0.10;;;0.10;;
26612;SDS011;14248;57.652;11.908;2023-03-30T17:40:30;0.10;;;0.10;;
26612;SDS011;14248;57.652;11.908;2023-03-30T17:42:56;0.10;;;0.10;;
26612;SDS011;14248;57.652;11.908;2023-03-30T17:45:24;0.20;;;0.10;;
26612;SDS011;14248;57.652;11.908;2023-03-30T17:47:50;0.10;;;0.10;;
26612;SDS011;14248;57.652;11.908;2023-03-30T17:50:21;1.55;;;0.30;;
26612;SDS011;14248;57.652;11.908;2023-03-30T17:52:48;0.82;;;0.20;;
26612;SDS011;14248;57.652;11.908;2023-03-30T17:55:15;0.17;;;0.10;;
26612;SDS011;14248;57.652;11.908;2023-03-30T17:57:44;0.93;;;0.30;;
26612;SDS011;14248;57.652;11.908;2023-03-30T18:00:15;0.10;;;0.10;;
26612;SDS011;14248;57.652;11.908;2023-03-30T18:02:42;0.35;;;0.10;;
26612;SDS011;14248;57.652;11.908;2023-03-30T18:05:08;0.00;;;0.00;;
26612;SDS011;14248;57.652;11.908;2023-03-30T18:07:34;0.20;;;0.10;;
26612;SDS011;14248;57.652;11.908;2023-03-30T18:10:01;0.10;;;0.10;;
26612;SDS011;14248;57.652;11.908;2023-03-30T18:12:37;0.10;;;0.10;;
26612;SDS011;14248;57.652;11.908;2023-03-30T18:15:04;0.10;;;0.10;;
26612;SDS011;14248;57.652;11.908;2023-03-30T18:17:31;0.10;;;0.10;;
26612;SDS011;14248;57.652;11.908;2023-03-30T18:19:57;0.10;;;0.10;;
26612;SDS011;14248;57.652;11.908;2023-03-30T18:25:15;0.10;;;0.10;;
26612;SDS011;14248;57.652;11.908;2023-03-30T18:27:42;0.05;;;0.03;;
26612;SDS011;14248;57.652;11.908;2023-03-30T18:30:30;0.10;;;0.10;;
26612;SDS011;14248;57.652;11.908;2023-03-30T18:32:56;0.17;;;0.10;;
26612;SDS011;14248;57.652;11.908;2023-03-30T18:35:24;0.10;;;0.10;;
26612;SDS011;14248;57.652;11.908;2023-03-30T18:37:51;0.10;;;0.10;;
26612;SDS011;14248;57.652;11.908;2023-03-30T18:40:26;0.10;;;0.10;;
26612;SDS011;14248;57.652;11.908;2023-03-30T18:42:53;0.10;;;0.10;;
26612;SDS011;14248;57.652;11.908;2023-03-30T18:45:29;0.38;;;0.20;;